Time;durP1;ratioP1;P1;durP2;ratioP2;P2;SDS_P1;SDS_P2;PMS_P1;PMS_P2;Temp;Humidity;BMP_temperature;BMP_pressure;BME280_temperature;BME280_humidity;BME280_pressure;Samples;Min_cycle;Max_cycle;Signal;HPM_P1;HPM_P2
2022/03/05 00:00:33;;;;;;;31.52;20.25;;;;;;;4.72;60.61;98455.06;5040715;28;20029;-59
2022/03/05 00:02:59;;;;;;;36.80;20.42;;;;;;;4.74;59.98;98442.88;5050053;28;20028;-60
2022/03/05 00:05:24;;;;;;;33.03;20.77;;;;;;;4.28;61.53;98403.25;5041082;28;20079;-61
2022/03/05 00:07:50;;;;;;;32.70;19.85;;;;;;;4.54;61.16;98454.63;5041519;28;20665;-59
2022/03/05 00:10:16;;;;;;;32.50;20.35;;;;;;;4.50;59.60;98459.19;5036757;28;20094;-60
2022/03/05 00:12:42;;;;;;;29.38;18.52;;;;;;;4.70;59.95;98462.91;5021145;28;20555;-60
2022/03/05 00:15:08;;;;;;;32.45;19.70;;;;;;;4.65;60.15;98454.69;5046709;28;20035;-60
2022/03/05 00:17:33;;;;;;;33.92;20.05;;;;;;;4.47;60.13;98445.69;5025547;28;20043;-60
2022/03/05 00:19:58;;;;;;;32.08;19.48;;;;;;;4.54;60.50;98470.91;5041281;28;20033;-59
2022/03/05 00:22:24;;;;;;;33.33;20.02;;;;;;;4.35;60.77;98458.53;5039570;28;20021;-59
2022/03/05 00:24:50;;;;;;;29.38;19.50;;;;;;;4.15;61.36;98428.25;5042142;28;20024;-60
2022/03/05 00:27:16;;;;;;;32.47;20.27;;;;;;;4.51;61.43;98460.00;5042143;28;20856;-60
2022/03/05 00:29:42;;;;;;;30.20;18.83;;;;;;;4.49;61.04;98459.28;5036753;28;20111;-61
2022/03/05 00:32:07;;;;;;;32.13;20.02;;;;;;;4.46;60.05;98467.25;5041926;28;20096;-60
2022/03/05 00:34:32;;;;;;;32.83;19.17;;;;;;;4.28;61.27;98477.09;5014404;28;20739;-60
2022/03/05 00:36:58;;;;;;;32.90;20.77;;;;;;;4.28;61.40;98477.91;5041600;28;20036;-60
2022/03/05 00:39:23;;;;;;;33.90;19.48;;;;;;;4.34;61.04;98477.47;5042509;28;20035;-61
2022/03/05 00:41:49;;;;;;;30.50;18.88;;;;;;;4.09;61.26;98431.22;5037136;28;20032;-60
2022/03/05 00:44:14;;;;;;;28.58;18.50;;;;;;;4.34;61.54;98474.88;5043476;28;20108;-60
2022/03/05 00:46:41;;;;;;;29.23;18.42;;;;;;;4.34;60.73;98482.59;5042233;28;20491;-59
2022/03/05 00:49:07;;;;;;;28.10;18.25;;;;;;;4.22;60.98;98466.28;5043235;28;20028;-60
2022/03/05 00:51:32;;;;;;;29.27;18.10;;;;;;;4.29;61.32;98491.59;5039849;28;20029;-60
2022/03/05 00:53:58;;;;;;;30.58;17.83;;;;;;;4.14;61.46;98478.06;5042467;28;20048;-60
2022/03/05 00:56:23;;;;;;;30.35;18.83;;;;;;;4.23;61.20;98485.13;5041296;28;20032;-59
2022/03/05 00:58:49;;;;;;;31.60;19.20;;;;;;;4.22;61.50;98471.44;5043405;28;20040;-60
2022/03/05 01:01:14;;;;;;;30.52;18.70;;;;;;;4.01;61.06;98432.59;5042990;28;20491;-60
2022/03/05 01:03:40;;;;;;;27.95;17.10;;;;;;;4.17;60.94;98483.00;5030832;28;20116;-60
2022/03/05 01:06:06;;;;;;;28.55;16.48;;;;;;;4.07;60.13;98474.25;5039536;28;20110;-59
2022/03/05 01:08:33;;;;;;;28.50;17.10;;;;;;;4.06;60.47;98488.06;5038513;28;20025;-60
2022/03/05 01:10:59;;;;;;;28.75;17.27;;;;;;;3.85;61.17;98493.75;5042727;28;20028;-60
2022/03/05 01:13:25;;;;;;;32.63;19.10;;;;;;;3.89;61.29;98478.91;5020711;28;20032;-59
2022/03/05 01:15:50;;;;;;;29.20;17.88;;;;;;;3.63;60.94;98417.25;5037029;28;20103;-59
2022/03/05 01:18:15;;;;;;;32.90;18.40;;;;;;;4.09;60.83;98472.41;5018757;28;20029;-60
2022/03/05 01:20:41;;;;;;;27.92;17.75;;;;;;;4.06;61.45;98475.19;5039719;28;20028;-60
2022/03/05 01:23:06;;;;;;;28.98;18.33;;;;;;;3.76;61.98;98469.50;5040789;28;20112;-59
2022/03/05 01:25:32;;;;;;;29.50;18.10;;;;;;;3.76;61.75;98481.50;5018921;28;20489;-60
2022/03/05 01:27:57;;;;;;;30.48;19.15;;;;;;;3.88;61.65;98477.28;5043778;28;20013;-60
2022/03/05 01:30:23;;;;;;;30.77;18.15;;;;;;;3.88;61.33;98464.44;5039747;28;20060;-60
2022/03/05 01:32:48;;;;;;;33.55;18.83;;;;;;;3.85;61.29;98468.03;5035452;28;20024;-59
2022/03/05 01:35:13;;;;;;;31.08;18.67;;;;;;;3.79;61.49;98464.13;5032548;28;20459;-60
2022/03/05 01:37:39;;;;;;;27.20;17.23;;;;;;;3.73;62.27;98463.75;5044804;28;20098;-60
2022/03/05 01:40:06;;;;;;;29.60;17.20;;;;;;;3.68;62.79;98473.50;5021398;28;20870;-60
2022/03/05 01:42:31;;;;;;;27.73;18.27;;;;;;;3.50;62.70;98473.81;5044886;28;20087;-60
2022/03/05 01:44:57;;;;;;;31.25;18.65;;;;;;;3.47;62.84;98472.28;5035794;28;20086;-60
2022/03/05 01:47:22;;;;;;;27.27;17.23;;;;;;;3.55;62.76;98463.25;5023280;28;20367;-59
2022/03/05 01:49:48;;;;;;;28.67;17.17;;;;;;;3.62;62.61;98457.56;5041401;28;20037;-60
2022/03/05 01:52:13;;;;;;;25.00;16.10;;;;;;;3.58;61.98;98469.00;5044539;28;20025;-60
2022/03/05 01:54:39;;;;;;;29.42;16.60;;;;;;;3.41;60.70;98428.16;5042752;28;20461;-59
2022/03/05 01:57:05;;;;;;;28.17;16.13;;;;;;;3.58;61.09;98471.56;5047147;28;20389;-60
2022/03/05 01:59:33;;;;;;;26.33;16.13;;;;;;;3.64;60.40;98463.44;5038520;28;20537;-60
2022/03/05 02:01:58;;;;;;;28.70;16.38;;;;;;;3.72;61.07;98477.50;5043557;28;20027;-60
2022/03/05 02:04:24;;;;;;;25.83;16.08;;;;;;;3.76;60.82;98476.38;5045228;28;20033;-60
2022/03/05 02:06:51;;;;;;;25.88;16.38;;;;;;;3.67;60.75;98464.97;5033704;28;20523;-60
2022/03/05 02:09:17;;;;;;;27.63;16.67;;;;;;;3.54;61.01;98472.72;5042441;28;20413;-61
2022/03/05 02:11:42;;;;;;;27.88;17.42;;;;;;;3.31;62.09;98476.00;5040648;28;20040;-60
2022/03/05 02:14:08;;;;;;;27.17;17.38;;;;;;;3.05;62.16;98412.56;5043191;28;20438;-60
2022/03/05 02:16:34;;;;;;;29.45;18.30;;;;;;;3.60;61.50;98463.75;5045200;28;20416;-60
2022/03/05 02:19:00;;;;;;;25.05;16.42;;;;;;;3.63;61.27;98469.50;5041301;28;20057;-60
2022/03/05 02:21:26;;;;;;;29.05;16.85;;;;;;;3.29;61.44;98413.59;5043416;28;20494;-60
2022/03/05 02:23:52;;;;;;;28.40;17.42;;;;;;;3.40;61.37;98422.22;5036981;28;20672;-60
2022/03/05 02:26:18;;;;;;;26.17;17.10;;;;;;;3.79;62.25;98479.56;5036169;28;20383;-60
2022/03/05 02:28:43;;;;;;;26.13;17.17;;;;;;;3.60;61.60;98462.00;5038768;28;20033;-61
2022/03/05 02:31:09;;;;;;;32.15;18.35;;;;;;;3.71;60.83;98483.59;5045888;28;20797;-60
2022/03/05 02:33:35;;;;;;;29.15;17.85;;;;;;;3.75;60.32;98467.84;5043694;28;20041;-61
2022/03/05 02:36:01;;;;;;;28.30;18.20;;;;;;;3.80;60.87;98475.25;5039884;28;20109;-60
2022/03/05 02:38:27;;;;;;;29.40;17.95;;;;;;;3.45;60.84;98403.94;5044023;28;20136;-60
2022/03/05 02:40:53;;;;;;;28.88;17.02;;;;;;;3.88;60.27;98480.69;5041739;28;20028;-60
2022/03/05 02:43:21;;;;;;;28.83;16.88;;;;;;;3.89;60.62;98469.47;5038544;28;20033;-60
2022/03/05 02:45:47;;;;;;;27.10;17.10;;;;;;;3.87;61.05;98468.75;5037759;28;20043;-60
2022/03/05 02:48:14;;;;;;;30.80;18.23;;;;;;;3.89;60.76;98471.22;5045899;28;20464;-60
2022/03/05 02:50:40;;;;;;;28.27;17.85;;;;;;;3.77;61.46;98462.59;5043129;28;20029;-60
2022/03/05 02:53:06;;;;;;;28.77;18.00;;;;;;;3.75;61.88;98472.97;5027204;28;20075;-60
2022/03/05 02:55:33;;;;;;;26.20;17.15;;;;;;;3.30;62.30;98410.91;5036415;28;20079;-60
2022/03/05 02:57:58;;;;;;;26.45;17.02;;;;;;;3.47;62.23;98446.59;5049388;28;20563;-60
2022/03/05 03:00:24;;;;;;;32.70;17.75;;;;;;;3.50;62.12;98452.44;5037734;28;20036;-60
2022/03/05 03:02:49;;;;;;;29.65;17.08;;;;;;;3.60;61.46;98464.56;5042572;28;20044;-61
2022/03/05 03:05:16;;;;;;;30.15;17.80;;;;;;;3.24;62.03;98412.13;5040584;28;20029;-60
2022/03/05 03:07:42;;;;;;;28.08;17.13;;;;;;;3.39;61.64;98417.19;5037973;28;20032;-61
2022/03/05 03:10:08;;;;;;;26.23;16.50;;;;;;;3.67;61.27;98454.69;5041710;28;20017;-60
2022/03/05 03:12:34;;;;;;;29.70;17.77;;;;;;;3.53;61.68;98468.47;5041871;28;20036;-61
2022/03/05 03:14:59;;;;;;;28.25;17.83;;;;;;;3.22;62.54;98474.84;5051299;28;20021;-60
2022/03/05 03:17:25;;;;;;;29.13;17.83;;;;;;;2.88;62.62;98415.41;5044534;28;20040;-61
2022/03/05 03:19:50;;;;;;;28.23;17.50;;;;;;;3.37;62.49;98467.88;5035553;28;20021;-60
2022/03/05 03:22:17;;;;;;;27.33;16.58;;;;;;;3.25;61.88;98431.78;5042512;28;20036;-61
2022/03/05 03:24:42;;;;;;;31.45;18.15;;;;;;;3.56;62.99;98467.44;5023074;28;20569;-61
2022/03/05 03:27:08;;;;;;;28.00;17.25;;;;;;;3.65;63.86;98465.09;5024056;28;20029;-60
2022/03/05 03:29:34;;;;;;;27.73;16.83;;;;;;;3.72;62.99;98462.09;5038593;28;20203;-61
2022/03/05 03:31:59;;;;;;;26.85;16.67;;;;;;;3.72;62.38;98473.19;5042949;28;20119;-60
2022/03/05 03:34:25;;;;;;;28.02;17.02;;;;;;;3.69;62.03;98478.56;5032568;28;20749;-60
2022/03/05 03:36:50;;;;;;;25.35;16.27;;;;;;;3.62;61.59;98477.31;5040217;28;20471;-61
2022/03/05 03:39:16;;;;;;;24.95;15.73;;;;;;;3.53;61.51;98468.47;5028386;28;20021;-60
2022/03/05 03:41:42;;;;;;;25.02;15.50;;;;;;;3.70;61.16;98474.22;5039872;28;20028;-61
2022/03/05 03:44:07;;;;;;;26.27;14.98;;;;;;;3.75;60.77;98460.13;5031438;28;20037;-59
2022/03/05 03:46:32;;;;;;;23.55;14.45;;;;;;;3.71;61.22;98471.56;5045217;28;20029;-60
2022/03/05 03:48:58;;;;;;;25.27;15.52;;;;;;;3.72;61.38;98468.03;5038301;28;20097;-61
2022/03/05 03:51:23;;;;;;;26.00;15.30;;;;;;;3.79;61.17;98474.41;5033406;28;20041;-60
2022/03/05 03:53:48;;;;;;;23.08;14.40;;;;;;;3.84;61.16;98480.06;5024819;28;20367;-60
2022/03/05 03:56:14;;;;;;;27.45;15.35;;;;;;;3.77;60.60;98473.69;5039156;28;20029;-60
2022/03/05 03:58:40;;;;;;;23.98;14.73;;;;;;;3.81;61.03;98477.69;5034274;28;20248;-60
2022/03/05 04:01:06;;;;;;;24.58;14.90;;;;;;;3.77;60.26;98476.28;5039804;28;20025;-60
2022/03/05 04:03:31;;;;;;;23.05;14.80;;;;;;;3.73;60.00;98479.16;5044946;28;20044;-60
2022/03/05 04:05:56;;;;;;;22.58;14.50;;;;;;;3.81;60.42;98479.44;5040937;28;20040;-60
2022/03/05 04:11:07;;;;;;;22.77;13.38;;;;;;;3.73;60.61;98482.56;5038401;28;20102;-60
2022/03/05 04:13:33;;;;;;;25.42;14.95;;;;;;;3.77;60.65;98489.13;5041896;28;20036;-59
2022/03/05 04:15:58;;;;;;;23.00;14.27;;;;;;;3.76;61.00;98481.50;5040627;28;20033;-60
2022/03/05 04:18:24;;;;;;;24.92;16.00;;;;;;;3.71;60.82;98474.13;5025338;28;20025;-60
2022/03/05 04:20:49;;;;;;;25.27;14.38;;;;;;;3.72;61.44;98468.03;5034384;28;20033;-60
2022/03/05 04:23:15;;;;;;;23.85;14.57;;;;;;;3.84;61.27;98482.63;5040988;28;20032;-61
2022/03/05 04:25:40;;;;;;;23.77;15.38;;;;;;;3.87;61.86;98486.78;5044122;28;20028;-60
2022/03/05 04:28:06;;;;;;;24.60;15.60;;;;;;;3.76;60.82;98478.94;5040469;28;20031;-61
2022/03/05 04:30:31;;;;;;;25.25;15.10;;;;;;;3.80;61.09;98488.94;5042696;28;20059;-61
2022/03/05 04:32:57;;;;;;;25.55;15.20;;;;;;;3.82;61.26;98497.34;5043524;28;20067;-60
2022/03/05 04:35:22;;;;;;;26.52;14.85;;;;;;;3.66;59.89;98502.72;5041929;28;20032;-60
2022/03/05 04:37:48;;;;;;;24.25;15.02;;;;;;;3.56;60.42;98488.84;5035465;28;20100;-61
2022/03/05 04:40:15;;;;;;;24.27;15.45;;;;;;;3.73;60.25;98498.00;5039467;28;20040;-61
2022/03/05 04:42:40;;;;;;;25.25;15.00;;;;;;;3.85;60.34;98499.72;5037358;28;20060;-60
2022/03/05 04:45:08;;;;;;;24.05;14.77;;;;;;;3.91;59.99;98498.50;5025779;28;20068;-60
2022/03/05 04:47:34;;;;;;;24.38;14.45;;;;;;;3.89;60.51;98500.34;5039440;28;20021;-61
2022/03/05 04:50:00;;;;;;;24.52;14.07;;;;;;;3.97;59.39;98500.63;5033473;28;20115;-60
2022/03/05 04:52:25;;;;;;;21.30;12.60;;;;;;;3.85;56.52;98470.59;5042447;28;20116;-61
2022/03/05 04:54:51;;;;;;;18.33;11.65;;;;;;;4.16;55.43;98507.06;5036049;28;20025;-61
2022/03/05 04:57:16;;;;;;;20.77;11.45;;;;;;;4.20;54.71;98500.81;5034380;28;20029;-60
2022/03/05 04:59:42;;;;;;;21.55;12.00;;;;;;;4.33;54.18;98501.56;5046868;28;20041;-61
2022/03/05 05:02:07;;;;;;;19.35;11.77;;;;;;;4.42;53.51;98498.34;5042359;28;20033;-60
2022/03/05 05:04:32;;;;;;;22.98;11.88;;;;;;;4.52;53.58;98508.00;5042523;28;20043;-60
2022/03/05 05:06:58;;;;;;;22.05;11.50;;;;;;;4.50;53.21;98509.88;5038757;28;20028;-60
2022/03/05 05:09:23;;;;;;;20.70;12.07;;;;;;;4.52;52.98;98497.69;5038308;28;20082;-60
2022/03/05 05:11:49;;;;;;;21.55;12.05;;;;;;;4.53;52.15;98507.91;5041561;28;20400;-60
2022/03/05 05:14:14;;;;;;;21.52;12.23;;;;;;;4.65;52.69;98513.09;5043692;28;20547;-60
2022/03/05 05:16:40;;;;;;;21.02;12.38;;;;;;;4.66;52.46;98515.56;5040298;28;20048;-60
2022/03/05 05:21:49;;;;;;;17.70;11.32;;;;;;;4.46;52.93;98467.25;5038041;28;20036;-60
2022/03/05 05:24:15;;;;;;;20.02;11.63;;;;;;;4.69;52.89;98499.06;5031321;28;20033;-61
2022/03/05 05:26:40;;;;;;;21.05;11.73;;;;;;;4.79;52.45;98500.06;5046456;28;20021;-61
2022/03/05 05:29:06;;;;;;;23.25;12.18;;;;;;;4.76;52.54;98508.00;5032976;28;20029;-60
2022/03/05 05:31:31;;;;;;;19.65;12.07;;;;;;;4.50;52.26;98464.31;5047293;28;20032;-60
2022/03/05 05:33:57;;;;;;;19.88;11.85;;;;;;;4.71;52.25;98507.50;5043402;28;20035;-60
2022/03/05 05:36:22;;;;;;;19.60;11.95;;;;;;;4.80;51.71;98517.13;5040823;28;20422;-61
2022/03/05 05:38:47;;;;;;;19.80;12.15;;;;;;;4.81;52.23;98505.91;5045848;28;20033;-60
2022/03/05 05:41:14;;;;;;;23.35;12.80;;;;;;;4.73;51.96;98511.63;5044101;28;20030;-60
2022/03/05 05:43:40;;;;;;;18.60;11.35;;;;;;;4.69;52.47;98530.81;5039696;28;20036;-60
2022/03/05 05:46:05;;;;;;;18.10;10.90;;;;;;;4.76;52.79;98531.19;5044301;28;20051;-60
2022/03/05 05:48:31;;;;;;;22.55;12.20;;;;;;;4.19;53.12;98437.38;5039985;28;20112;-61
2022/03/05 05:50:56;;;;;;;18.63;11.43;;;;;;;4.54;52.45;98496.66;5043524;28;20095;-60
2022/03/05 05:53:23;;;;;;;19.95;12.02;;;;;;;4.61;52.94;98515.06;5045125;28;20043;-61
2022/03/05 05:55:48;;;;;;;19.13;11.77;;;;;;;4.35;53.18;98478.31;5055909;28;20028;-59
2022/03/05 05:58:14;;;;;;;21.60;12.07;;;;;;;4.31;53.18;98472.56;5038065;28;20033;-60
2022/03/05 06:00:39;;;;;;;24.08;12.32;;;;;;;4.59;53.42;98520.31;5045469;28;20025;-61
2022/03/05 06:03:05;;;;;;;18.05;11.23;;;;;;;4.46;53.68;98493.81;5045673;28;20029;-60
2022/03/05 06:05:31;;;;;;;21.05;12.57;;;;;;;4.67;53.88;98531.84;5044280;28;20547;-60
2022/03/05 06:07:56;;;;;;;20.08;11.68;;;;;;;4.61;54.25;98533.09;5041001;28;20029;-60
2022/03/05 06:10:22;;;;;;;19.10;12.45;;;;;;;4.56;54.40;98527.44;5038714;28;20537;-61
2022/03/05 06:12:48;;;;;;;21.45;12.65;;;;;;;4.68;54.24;98538.66;5038051;28;20036;-60
2022/03/05 06:15:15;;;;;;;21.25;12.90;;;;;;;4.63;53.77;98533.81;5030338;28;20471;-59
2022/03/05 06:17:44;;;;;;;21.80;12.50;;;;;;;4.31;53.72;98482.84;5042651;28;20039;-59
2022/03/05 06:20:10;;;;;;;21.40;12.73;;;;;;;4.70;54.10;98550.47;5041950;28;20059;-61
2022/03/05 06:22:36;;;;;;;22.35;12.73;;;;;;;4.58;54.27;98541.03;5041354;28;20378;-59
2022/03/05 06:25:02;;;;;;;20.02;12.05;;;;;;;4.54;54.26;98545.56;5042670;28;20107;-60
2022/03/05 06:27:28;;;;;;;21.60;12.18;;;;;;;4.52;54.29;98532.00;5044209;28;20025;-59
2022/03/05 06:29:53;;;;;;;21.13;11.88;;;;;;;4.56;54.29;98541.16;5044967;28;20039;-59
2022/03/05 06:32:18;;;;;;;19.50;12.27;;;;;;;4.54;54.64;98548.16;5040912;28;20033;-59
2022/03/05 06:34:44;;;;;;;19.15;11.50;;;;;;;4.57;54.50;98549.69;5044562;28;20036;-59
2022/03/05 06:37:09;;;;;;;19.63;11.30;;;;;;;4.45;54.80;98527.38;5036129;28;20025;-59
2022/03/05 06:39:34;;;;;;;20.77;11.68;;;;;;;4.63;54.56;98536.38;5041185;28;20033;-60
2022/03/05 06:42:00;;;;;;;19.75;11.32;;;;;;;4.72;54.72;98553.75;5039756;28;20882;-59
2022/03/05 06:44:26;;;;;;;19.50;11.55;;;;;;;4.72;53.91;98530.56;5041798;28;20525;-59
2022/03/05 06:46:51;;;;;;;21.73;11.90;;;;;;;4.74;53.55;98544.16;5041825;28;20021;-59
2022/03/05 06:49:17;;;;;;;18.48;10.98;;;;;;;4.75;53.43;98545.00;5042779;28;20384;-60
2022/03/05 06:51:42;;;;;;;18.17;11.02;;;;;;;4.42;53.77;98490.63;5042724;28;20402;-59
2022/03/05 06:54:08;;;;;;;20.00;11.75;;;;;;;4.64;54.02;98543.19;5039351;28;20041;-59
2022/03/05 06:56:33;;;;;;;21.13;11.52;;;;;;;4.76;54.13;98551.78;5041736;28;20028;-60
2022/03/05 06:58:59;;;;;;;21.25;11.93;;;;;;;4.73;54.14;98541.72;5022047;28;20033;-59
2022/03/05 07:01:24;;;;;;;20.50;11.48;;;;;;;4.92;53.79;98556.66;5044864;28;20359;-59
2022/03/05 07:03:50;;;;;;;20.40;11.10;;;;;;;4.94;54.03;98557.38;5040157;28;20025;-60
2022/03/05 07:06:15;;;;;;;20.20;11.70;;;;;;;4.91;54.02;98555.00;5039202;28;20100;-59
2022/03/05 07:08:40;;;;;;;21.83;11.98;;;;;;;4.73;54.15;98555.41;5041454;28;20576;-58
2022/03/05 07:11:06;;;;;;;22.30;12.05;;;;;;;4.84;54.10;98559.81;5043422;28;20057;-60
2022/03/05 07:13:31;;;;;;;19.02;11.35;;;;;;;4.51;54.51;98511.50;5042361;28;20063;-60
2022/03/05 07:15:57;;;;;;;23.25;12.45;;;;;;;4.77;54.51;98559.41;5040021;28;20372;-59
2022/03/05 07:18:22;;;;;;;20.13;12.75;;;;;;;4.92;54.55;98561.81;5037437;28;20037;-60
2022/03/05 07:20:48;;;;;;;21.20;12.40;;;;;;;4.77;54.45;98556.03;5044012;28;20083;-59
2022/03/05 07:23:13;;;;;;;20.85;12.13;;;;;;;4.77;54.29;98561.97;5042079;28;20428;-59
2022/03/05 07:25:43;;;;;;;19.90;12.65;;;;;;;4.37;54.66;98499.63;5037703;28;20029;-60
2022/03/05 07:28:10;;;;;;;20.13;12.27;;;;;;;4.80;54.53;98558.34;5040374;28;20767;-59
2022/03/05 07:30:39;;;;;;;19.65;11.98;;;;;;;4.82;54.56;98569.41;5039783;28;20125;-59
2022/03/05 07:33:05;;;;;;;22.38;12.65;;;;;;;4.66;54.51;98554.19;5043068;28;20037;-59
2022/03/05 07:35:30;;;;;;;20.63;12.18;;;;;;;4.72;54.62;98574.38;5042925;28;20040;-60
2022/03/05 07:37:56;;;;;;;21.75;12.20;;;;;;;4.63;53.78;98567.28;5052340;28;20025;-59
2022/03/05 07:40:21;;;;;;;21.63;12.18;;;;;;;4.69;53.99;98574.59;5037383;28;20105;-59
2022/03/05 07:42:47;;;;;;;21.92;12.85;;;;;;;4.82;53.82;98575.38;5040970;28;20380;-59
2022/03/05 07:45:12;;;;;;;22.27;11.95;;;;;;;4.73;53.74;98573.44;5036769;28;20060;-59
2022/03/05 07:47:38;;;;;;;19.25;11.45;;;;;;;4.75;53.75;98571.56;5040321;28;20748;-59
2022/03/05 07:50:03;;;;;;;19.48;12.00;;;;;;;4.75;53.82;98569.00;5034619;28;20040;-59
2022/03/05 07:52:29;;;;;;;21.65;12.02;;;;;;;4.74;52.97;98571.69;5040286;28;20801;-59
2022/03/05 07:54:54;;;;;;;19.63;11.43;;;;;;;4.76;52.69;98575.81;5033710;28;20026;-59
2022/03/05 07:57:20;;;;;;;21.15;11.98;;;;;;;4.71;53.09;98572.75;5021785;28;20021;-59
2022/03/05 07:59:45;;;;;;;19.90;11.30;;;;;;;4.82;52.91;98580.53;5040569;28;20147;-59
2022/03/05 08:02:10;;;;;;;21.15;11.80;;;;;;;4.78;52.52;98578.25;5042875;28;20024;-59
2022/03/05 08:04:36;;;;;;;21.25;11.95;;;;;;;4.80;52.23;98584.13;5043241;28;20025;-60
2022/03/05 08:07:03;;;;;;;19.15;11.15;;;;;;;4.82;52.15;98585.66;5027164;28;20036;-59
2022/03/05 08:09:28;;;;;;;21.63;11.73;;;;;;;4.87;51.41;98589.66;5043301;28;20033;-58
2022/03/05 08:11:53;;;;;;;17.52;11.15;;;;;;;4.76;51.92;98588.69;5042081;28;20032;-59
2022/03/05 08:14:19;;;;;;;18.88;11.60;;;;;;;4.80;51.33;98597.84;5033138;28;20519;-59
2022/03/05 08:16:44;;;;;;;23.77;11.55;;;;;;;4.95;51.52;98592.53;5044195;28;20111;-59
2022/03/05 08:19:10;;;;;;;20.65;11.73;;;;;;;4.91;50.95;98596.25;5041672;28;20685;-59
2022/03/05 08:21:36;;;;;;;18.33;11.40;;;;;;;4.95;50.48;98590.78;5041694;28;20025;-59
2022/03/05 08:24:02;;;;;;;17.80;10.73;;;;;;;4.60;50.47;98540.00;5041010;28;20560;-59
2022/03/05 08:26:27;;;;;;;19.80;11.57;;;;;;;4.89;50.09;98588.66;5043038;28;20027;-60
2022/03/05 08:28:53;;;;;;;20.33;11.80;;;;;;;4.94;49.74;98581.38;5037767;28;20542;-59
2022/03/05 08:31:18;;;;;;;21.58;11.82;;;;;;;4.78;49.61;98571.38;5039270;28;20031;-59
2022/03/05 08:33:44;;;;;;;21.42;11.20;;;;;;;4.96;49.21;98591.59;5001748;28;24244;-60
2022/03/05 08:36:10;;;;;;;19.25;11.20;;;;;;;5.03;49.13;98602.28;5041567;28;20388;-59
2022/03/05 08:38:36;;;;;;;18.90;11.38;;;;;;;5.01;49.05;98594.66;5039687;28;20491;-59
2022/03/05 08:41:02;;;;;;;18.92;11.32;;;;;;;5.07;48.80;98595.97;5040113;28;20117;-59
2022/03/05 08:43:28;;;;;;;19.55;11.73;;;;;;;4.97;48.89;98594.06;5033987;28;20064;-59
2022/03/05 08:45:53;;;;;;;18.50;11.02;;;;;;;5.00;48.92;98595.59;5056235;28;20112;-59
2022/03/05 08:48:19;;;;;;;17.38;10.40;;;;;;;4.65;48.39;98542.25;5039999;28;20032;-59
2022/03/05 08:50:45;;;;;;;17.08;10.05;;;;;;;4.96;47.79;98576.94;5048294;28;20044;-59
2022/03/05 08:53:11;;;;;;;18.30;10.85;;;;;;;4.98;47.88;98597.44;5041805;28;20297;-60
2022/03/05 08:55:36;;;;;;;19.00;10.98;;;;;;;5.10;47.66;98593.19;5031949;28;20029;-60
2022/03/05 08:58:01;;;;;;;17.85;11.18;;;;;;;5.01;46.79;98595.47;5033590;28;20561;-59
2022/03/05 09:00:28;;;;;;;16.25;9.57;;;;;;;4.72;46.91;98540.88;5016876;28;20483;-60
2022/03/05 09:02:54;;;;;;;20.35;11.55;;;;;;;5.03;47.05;98600.53;5035546;28;20155;-59
2022/03/05 09:05:19;;;;;;;19.15;10.68;;;;;;;4.75;47.13;98535.50;5020457;28;20132;-59
2022/03/05 09:07:45;;;;;;;17.52;10.98;;;;;;;5.12;46.48;98593.91;5025755;28;21274;-59
2022/03/05 09:10:11;;;;;;;16.73;9.85;;;;;;;5.17;45.99;98584.91;5022056;28;20030;-59
2022/03/05 09:12:37;;;;;;;18.85;10.45;;;;;;;4.73;46.51;98539.97;5023239;28;20072;-59
2022/03/05 09:15:04;;;;;;;18.98;10.98;;;;;;;5.10;46.76;98601.72;5031699;28;20143;-59
2022/03/05 09:17:29;;;;;;;15.68;9.65;;;;;;;4.91;45.74;98534.41;5038472;28;20028;-60
2022/03/05 09:19:55;;;;;;;15.75;9.30;;;;;;;5.12;45.35;98589.56;5039716;28;20439;-60
2022/03/05 09:22:20;;;;;;;17.60;9.90;;;;;;;5.20;46.44;98600.16;5042618;28;20136;-59
2022/03/05 09:24:46;;;;;;;19.63;11.10;;;;;;;5.10;46.72;98591.41;5037834;28;20426;-59
2022/03/05 09:27:11;;;;;;;16.75;10.45;;;;;;;5.20;46.50;98589.84;5039854;28;20052;-59
2022/03/05 09:29:37;;;;;;;16.48;9.88;;;;;;;5.26;46.24;98598.06;5044670;28;20418;-59
2022/03/05 09:32:03;;;;;;;19.50;10.18;;;;;;;5.24;45.94;98585.28;5039192;28;20028;-59
2022/03/05 09:34:29;;;;;;;17.95;10.55;;;;;;;5.23;45.70;98578.47;5031731;28;20025;-59
2022/03/05 09:36:54;;;;;;;17.80;10.57;;;;;;;5.04;45.22;98535.19;5021635;28;20086;-59
2022/03/05 09:39:20;;;;;;;17.20;10.20;;;;;;;5.58;45.13;98586.22;5017953;28;20041;-59
2022/03/05 09:41:45;;;;;;;16.75;9.77;;;;;;;5.67;43.77;98582.09;5036352;28;20548;-59
2022/03/05 09:44:11;;;;;;;16.08;9.32;;;;;;;5.72;44.03;98581.78;5022896;28;20037;-59
2022/03/05 09:46:36;;;;;;;18.42;9.85;;;;;;;5.82;43.89;98580.13;5041267;28;20104;-59
2022/03/05 09:49:03;;;;;;;16.63;9.77;;;;;;;5.79;44.19;98582.97;5039918;28;20048;-60
2022/03/05 09:51:28;;;;;;;16.08;9.52;;;;;;;5.68;44.93;98581.19;5041291;28;20079;-59
2022/03/05 09:53:55;;;;;;;16.92;9.40;;;;;;;5.80;44.91;98584.59;5036355;28;20029;-59
2022/03/05 09:56:20;;;;;;;19.23;10.80;;;;;;;5.79;44.06;98572.66;5020952;28;20029;-59
2022/03/05 09:58:47;;;;;;;17.98;9.90;;;;;;;5.76;44.66;98588.34;5035651;28;20094;-59
2022/03/05 10:01:13;;;;;;;14.85;9.75;;;;;;;5.75;44.99;98574.63;5041472;28;20387;-59
2022/03/05 10:03:46;;;;;;;18.88;10.57;;;;;;;5.51;45.34;98541.19;5035347;28;20120;-59
2022/03/05 10:06:16;;;;;;;22.05;10.55;;;;;;;5.80;44.87;98573.47;5033011;28;20025;-60
2022/03/05 10:08:43;;;;;;;16.08;9.95;;;;;;;5.72;45.42;98574.84;5033472;28;20028;-60
2022/03/05 10:11:11;;;;;;;15.98;10.30;;;;;;;5.73;45.69;98566.19;5020048;28;20712;-59
2022/03/05 10:13:37;;;;;;;17.00;9.98;;;;;;;5.82;45.42;98580.13;5043259;28;20511;-59
2022/03/05 10:16:24;;;;;;;20.10;10.98;;;;;;;5.56;45.33;98512.44;5040466;28;20028;-60
2022/03/05 10:18:50;;;;;;;17.92;10.68;;;;;;;5.65;44.88;98519.50;5038918;28;20054;-60
2022/03/05 10:21:16;;;;;;;15.80;10.23;;;;;;;6.10;45.48;98566.00;5045475;28;20060;-60
2022/03/05 10:23:47;;;;;;;15.60;9.88;;;;;;;6.16;45.01;98575.03;5027474;28;20032;-59
2022/03/05 10:26:14;;;;;;;18.70;9.93;;;;;;;6.07;45.45;98557.66;5059729;28;20461;-59
2022/03/05 10:28:40;;;;;;;17.08;10.27;;;;;;;6.16;45.55;98564.72;5036633;28;20463;-59
2022/03/05 10:31:12;;;;;;;18.70;10.50;;;;;;;6.21;45.66;98549.69;5039939;28;20261;-59
2022/03/05 10:33:40;;;;;;;18.20;11.32;;;;;;;6.28;45.40;98556.03;5037230;28;20032;-59
2022/03/05 10:36:09;;;;;;;20.02;10.75;;;;;;;6.44;45.09;98552.25;5038305;28;20025;-59
2022/03/05 10:38:46;;;;;;;19.13;10.68;;;;;;;6.41;45.25;98563.66;5031763;28;20046;-60
2022/03/05 10:41:17;;;;;;;16.88;10.32;;;;;;;6.50;45.80;98534.50;5039962;28;20415;-59
2022/03/05 10:44:13;;;;;;;19.00;11.10;;;;;;;6.63;45.23;98549.06;5034943;28;20036;-60
2022/03/05 10:46:47;;;;;;;18.50;10.60;;;;;;;6.69;45.52;98557.13;5027810;28;20029;-59
2022/03/05 10:49:22;;;;;;;17.23;10.52;;;;;;;6.88;44.89;98547.91;5038314;28;20029;-59
2022/03/05 10:51:49;;;;;;;17.52;10.40;;;;;;;6.80;43.78;98527.03;5041244;28;20031;-60
2022/03/05 10:54:27;;;;;;;18.50;10.43;;;;;;;6.44;43.53;98487.66;5039164;28;20025;-60
2022/03/05 10:57:21;;;;;;;16.08;10.43;;;;;;;6.87;43.10;98547.09;5045473;28;20083;-59
2022/03/05 10:59:49;;;;;;;17.65;10.75;;;;;;;6.66;43.48;98503.13;5038630;28;20491;-59
2022/03/05 11:02:17;;;;;;;18.75;11.27;;;;;;;6.93;42.97;98538.00;5058048;28;20056;-59
2022/03/05 11:04:43;;;;;;;17.17;10.57;;;;;;;6.89;43.43;98539.22;5036900;28;20052;-59
2022/03/05 11:07:10;;;;;;;17.55;10.85;;;;;;;6.90;42.87;98544.25;5024780;28;20037;-59
2022/03/05 11:09:37;;;;;;;17.10;10.77;;;;;;;6.59;42.91;98493.38;5055660;28;20024;-59
2022/03/05 11:12:04;;;;;;;17.98;10.93;;;;;;;6.57;43.35;98477.19;5005888;28;20033;-60
2022/03/05 11:14:29;;;;;;;18.67;11.38;;;;;;;6.93;43.42;98535.44;5042698;28;20025;-59
2022/03/05 11:16:56;;;;;;;16.00;10.48;;;;;;;6.67;43.11;98483.25;5037078;28;20117;-59
2022/03/05 11:19:23;;;;;;;17.30;10.82;;;;;;;7.16;41.63;98527.59;5049327;28;20025;-59
2022/03/05 11:21:49;;;;;;;15.57;10.50;;;;;;;7.13;41.73;98526.06;5053939;28;20088;-59
2022/03/05 11:24:18;;;;;;;18.08;10.52;;;;;;;7.12;42.25;98519.28;5042118;28;20112;-60
2022/03/05 11:26:47;;;;;;;16.30;10.32;;;;;;;6.90;42.70;98515.84;5041122;28;20095;-59